createdAt,value
2023-11-26T00:13:32.159Z,99690.70
2023-11-26T00:43:35.825Z,99724.95
2023-11-26T01:13:39.054Z,99763.42
2023-11-26T01:43:42.355Z,99778.69
2023-11-26T02:13:45.907Z,99802.42
2023-11-26T02:43:49.478Z,99826.20
2023-11-26T03:13:52.948Z,99849.96
2023-11-26T03:43:56.423Z,99879.55
2023-11-26T04:13:59.535Z,99915.89
2023-11-26T04:44:02.567Z,99932.75
2023-11-26T05:14:06.803Z,99962.25
2023-11-26T05:44:09.771Z,100008.85
2023-11-26T06:14:13.763Z,100028.16
2023-11-26T06:44:16.640Z,100045.83
2023-11-26T07:14:20.415Z,100062.28
2023-11-26T07:44:23.377Z,100092.73
2023-11-26T08:14:27.658Z,100123.30
2023-11-26T08:44:30.566Z,100146.11
2023-11-26T09:14:34.139Z,100162.14
2023-11-26T09:44:36.970Z,100172.54
2023-11-26T10:14:40.885Z,100168.58
2023-11-26T10:44:43.817Z,100169.62
2023-11-26T11:14:47.750Z,100177.48
2023-11-26T11:44:50.863Z,100166.34
2023-11-26T12:14:54.549Z,100168.88
2023-11-26T12:44:57.552Z,100159.45
2023-11-26T13:15:01.622Z,100180.66
2023-11-26T13:45:10.566Z,100173.47
2023-11-26T14:15:17.989Z,100177.64
2023-11-26T14:45:20.945Z,100183.24
2023-11-26T15:15:25.015Z,100210.16
2023-11-26T15:45:28.142Z,100208.55
2023-11-26T16:15:32.006Z,100204.89
2023-11-26T16:45:35.111Z,100210.77
2023-11-26T17:15:38.753Z,100217.98
2023-11-26T17:45:41.947Z,100215.39
2023-11-26T18:15:46.018Z,100209.58
2023-11-26T18:45:49.187Z,100198.53
2023-11-26T19:15:53.238Z,100181.31
2023-11-26T19:45:56.343Z,100170.22
2023-11-26T20:16:00.613Z,100150.66
2023-11-26T20:46:04.058Z,100146.25
2023-11-26T21:16:08.228Z,100125.77
2023-11-26T21:46:11.428Z,100114.13
2023-11-26T22:16:15.090Z,100114.49
2023-11-26T22:46:19.021Z,100099.66
2023-11-26T23:16:22.868Z,100093.38
2023-11-26T23:46:25.950Z,100086.98
